Time;durP1;ratioP1;P1;durP2;ratioP2;P2;SDS_P1;SDS_P2;PMS_P1;PMS_P2;Temp;Humidity;BMP_temperature;BMP_pressure;BME280_temperature;BME280_humidity;BME280_pressure;Samples;Min_cycle;Max_cycle;Signal;HPM_P1;HPM_P2
2023/03/14 00:02:01;;;;;;;18.75;3.45;;;10.80;99.90;;;;;;4993914;28;20090;-82
2023/03/14 00:04:26;;;;;;;18.15;3.17;;;10.80;99.90;;;;;;4993701;28;20101;-82
2023/03/14 00:06:52;;;;;;;14.27;3.45;;;10.80;99.90;;;;;;4994026;28;20049;-82
2023/03/14 00:09:18;;;;;;;15.65;3.22;;;10.90;99.90;;;;;;4993286;28;20047;-83
2023/03/14 00:11:43;;;;;;;14.13;2.65;;;10.90;99.90;;;;;;4992503;28;20052;-83
2023/03/14 00:14:09;;;;;;;16.33;3.38;;;10.80;99.90;;;;;;4993965;28;20050;-83
2023/03/14 00:16:35;;;;;;;18.67;3.05;;;10.80;99.90;;;;;;4993486;28;20081;-83
2023/03/14 00:19:01;;;;;;;16.40;3.22;;;10.80;99.90;;;;;;4994053;28;20050;-83
2023/03/14 00:21:27;;;;;;;16.55;4.43;;;10.70;99.90;;;;;;4991962;28;20046;-87
2023/03/14 00:23:53;;;;;;;12.18;3.00;;;10.70;99.90;;;;;;4993034;28;20061;-85
2023/03/14 00:26:20;;;;;;;13.80;3.35;;;10.60;99.90;;;;;;4991917;28;20051;-82
2023/03/14 00:28:50;;;;;;;12.88;3.00;;;10.50;99.90;;;;;;4993713;28;20105;-86
2023/03/14 00:31:16;;;;;;;15.75;3.15;;;10.40;99.90;;;;;;4993631;28;20046;-82
2023/03/14 00:33:43;;;;;;;18.65;3.55;;;10.20;99.90;;;;;;4991878;28;20124;-84
2023/03/14 00:36:14;;;;;;;20.48;4.80;;;10.10;99.90;;;;;;4992162;28;20053;-81
2023/03/14 00:38:41;;;;;;;14.18;3.30;;;9.90;99.90;;;;;;4992240;28;20510;-80
2023/03/14 00:41:12;;;;;;;12.10;2.85;;;9.70;99.90;;;;;;4993031;28;20054;-81
2023/03/14 00:43:38;;;;;;;16.15;3.95;;;9.70;99.90;;;;;;4991766;28;20054;-82
2023/03/14 00:46:05;;;;;;;11.90;2.83;;;9.60;99.90;;;;;;4993228;28;20049;-82
2023/03/14 00:48:30;;;;;;;9.98;3.58;;;9.60;99.90;;;;;;4992676;28;20184;-81
2023/03/14 00:50:56;;;;;;;13.68;2.88;;;9.60;99.90;;;;;;4993179;28;20129;-82
2023/03/14 00:53:22;;;;;;;8.63;3.63;;;9.60;99.90;;;;;;4992261;28;20042;-79
2023/03/14 00:55:48;;;;;;;10.10;3.90;;;9.60;99.90;;;;;;4992409;28;20117;-82
2023/03/14 00:58:16;;;;;;;12.20;3.42;;;9.60;99.90;;;;;;4992875;28;20054;-80
2023/03/14 01:00:43;;;;;;;17.70;4.47;;;9.60;99.90;;;;;;4992565;28;20053;-80
2023/03/14 01:03:09;;;;;;;12.45;3.72;;;9.60;99.90;;;;;;4992738;28;20387;-81
2023/03/14 01:05:35;;;;;;;17.15;4.18;;;9.60;99.90;;;;;;4992416;28;20129;-80
2023/03/14 01:08:02;;;;;;;18.75;3.47;;;9.60;99.90;;;;;;4992096;28;20575;-78
2023/03/14 01:10:27;;;;;;;;;;;9.60;99.90;;;;;;4991495;28;20061;-76
2023/03/14 01:12:53;;;;;;;10.05;2.10;;;9.40;99.90;;;;;;4992698;28;19922;-76
2023/03/14 01:15:19;;;;;;;10.23;2.45;;;9.20;99.90;;;;;;4992863;28;20484;-76
2023/03/14 01:17:45;;;;;;;8.32;2.03;;;9.00;99.90;;;;;;4992265;28;20038;-76
2023/03/14 01:20:12;;;;;;;12.00;3.15;;;8.80;99.90;;;;;;4992867;28;20088;-76
2023/03/14 01:22:39;;;;;;;13.25;3.40;;;8.70;99.90;;;;;;4991795;28;20054;-76
2023/03/14 01:25:11;;;;;;;11.80;3.55;;;8.60;99.90;;;;;;4991997;28;20488;-75
2023/03/14 01:27:37;;;;;;;15.55;3.40;;;8.60;99.90;;;;;;4991968;28;20034;-77
2023/03/14 01:30:04;;;;;;;15.25;3.28;;;8.60;99.90;;;;;;4991534;28;20097;-77
2023/03/14 01:32:30;;;;;;;9.57;3.60;;;8.70;99.90;;;;;;4991851;28;20507;-78
2023/03/14 01:34:56;;;;;;;12.10;3.85;;;8.70;99.90;;;;;;4991526;28;20088;-78
2023/03/14 01:37:21;;;;;;;16.13;4.30;;;8.80;99.90;;;;;;4991566;28;20053;-77
2023/03/14 01:39:48;;;;;;;13.43;4.03;;;8.80;99.90;;;;;;4991932;28;20059;-77
2023/03/14 01:42:14;;;;;;;;;;;8.80;99.90;;;;;;4992241;28;20466;-77
2023/03/14 01:45:00;;;;;;;15.77;4.55;;;8.80;99.90;;;;;;4991902;28;20328;-78
2023/03/14 01:47:26;;;;;;;13.32;4.32;;;8.80;99.90;;;;;;4991845;28;20046;-75
2023/03/14 01:50:12;;;;;;;16.00;4.43;;;8.80;99.90;;;;;;4992265;28;20085;-77
2023/03/14 01:52:45;;;;;;;17.95;4.10;;;8.80;99.90;;;;;;4991212;28;20054;-78
2023/03/14 01:55:21;;;;;;;14.65;3.42;;;8.90;99.90;;;;;;4992093;28;20049;-78
2023/03/14 01:57:53;;;;;;;13.00;3.90;;;8.90;99.90;;;;;;4991605;28;20061;-78
2023/03/14 02:00:21;;;;;;;10.07;3.30;;;8.80;99.90;;;;;;4991915;28;20441;-77
2023/03/14 02:02:54;;;;;;;15.32;3.95;;;8.80;99.90;;;;;;4991768;28;20046;-78
2023/03/14 02:05:26;;;;;;;15.38;3.55;;;8.80;99.90;;;;;;4992075;28;20057;-78
2023/03/14 02:07:57;;;;;;;13.77;4.20;;;8.80;99.90;;;;;;4991017;28;20050;-78
2023/03/14 02:10:27;;;;;;;15.85;3.15;;;8.80;99.90;;;;;;4991549;28;20050;-78
2023/03/14 02:12:56;;;;;;;9.75;3.05;;;8.80;99.90;;;;;;4991680;28;20046;-78
2023/03/14 02:15:22;;;;;;;15.48;3.40;;;8.90;99.90;;;;;;4975028;28;20449;-79
2023/03/14 02:17:49;;;;;;;12.93;2.70;;;8.90;99.90;;;;;;4991666;28;20045;-79
2023/03/14 02:20:29;;;;;;;;;;;8.90;99.90;;;;;;4992574;28;20050;-78
2023/03/14 02:22:56;;;;;;;13.75;3.17;;;8.90;99.90;;;;;;4991680;28;19976;-78
2023/03/14 02:25:21;;;;;;;;;;;8.90;99.90;;;;;;4992047;28;20057;-78
2023/03/14 02:27:48;;;;;;;8.60;2.63;;;8.80;99.90;;;;;;4991698;28;19922;-78
2023/03/14 02:30:30;;;;;;;12.23;3.38;;;8.80;99.90;;;;;;4992026;28;20053;-77
2023/03/14 02:33:15;;;;;;;13.65;2.75;;;8.80;99.90;;;;;;4992251;28;20050;-78
2023/03/14 02:35:55;;;;;;;11.55;3.67;;;8.90;99.90;;;;;;4991688;28;20050;-77
2023/03/14 02:38:31;;;;;;;15.77;3.00;;;8.90;99.90;;;;;;4991455;28;20042;-78
2023/03/14 02:40:56;;;;;;;5.72;2.13;;;8.90;99.90;;;;;;4991449;28;20050;-78
2023/03/14 02:43:22;;;;;;;14.93;3.03;;;8.80;99.90;;;;;;4992044;28;20049;-78
2023/03/14 02:45:50;;;;;;;8.20;1.88;;;8.90;99.90;;;;;;4991459;28;20046;-78
2023/03/14 02:48:31;;;;;;;10.48;2.40;;;8.80;99.90;;;;;;4992180;28;20229;-77
2023/03/14 02:50:59;;;;;;;8.70;2.72;;;8.80;99.90;;;;;;4994921;28;20121;-78
2023/03/14 02:53:28;;;;;;;9.45;2.38;;;8.90;99.90;;;;;;4993671;28;20105;-78
2023/03/14 02:55:54;;;;;;;6.30;2.38;;;8.80;99.90;;;;;;4994518;28;20082;-78
2023/03/14 02:58:21;;;;;;;12.10;2.42;;;8.90;99.90;;;;;;4995133;28;20152;-78
2023/03/14 03:00:46;;;;;;;;;;;8.80;99.90;;;;;;4995381;28;20121;-78
2023/03/14 03:03:12;;;;;;;8.27;2.10;;;8.80;99.90;;;;;;4995122;28;20375;-77
2023/03/14 03:05:38;;;;;;;;;;;8.80;99.90;;;;;;4995229;28;20042;-77
2023/03/14 03:08:05;;;;;;;9.50;2.10;;;8.80;99.90;;;;;;4994367;28;20298;-77
2023/03/14 03:10:31;;;;;;;5.97;2.38;;;8.80;99.90;;;;;;4993988;28;20050;-77
2023/03/14 03:12:57;;;;;;;9.73;2.10;;;8.80;99.90;;;;;;4994824;28;20040;-78
2023/03/14 03:15:23;;;;;;;6.80;2.47;;;8.80;99.90;;;;;;4995191;28;20488;-77
2023/03/14 03:17:48;;;;;;;;;;;8.80;99.90;;;;;;4994990;28;20043;-77
2023/03/14 03:20:14;;;;;;;6.47;1.80;;;8.80;99.90;;;;;;4994989;28;20387;-77
2023/03/14 03:22:40;;;;;;;10.05;2.33;;;8.80;99.90;;;;;;4994272;28;20046;-77
2023/03/14 03:25:07;;;;;;;7.32;2.33;;;8.80;99.90;;;;;;4994649;28;20050;-77
2023/03/14 03:27:35;;;;;;;10.48;2.30;;;8.70;99.90;;;;;;4994413;28;20046;-77
2023/03/14 03:30:01;;;;;;;9.57;2.67;;;8.70;99.90;;;;;;4993845;28;20054;-77
2023/03/14 03:32:26;;;;;;;;;;;8.70;99.90;;;;;;4994994;28;20066;-77
2023/03/14 03:34:52;;;;;;;7.65;2.10;;;8.70;99.90;;;;;;4994387;28;19929;-77
2023/03/14 03:37:18;;;;;;;12.07;2.08;;;8.70;99.90;;;;;;4994297;28;20472;-77
2023/03/14 03:39:43;;;;;;;10.63;2.53;;;8.70;99.90;;;;;;4994105;28;20046;-77
2023/03/14 03:42:10;;;;;;;11.75;2.47;;;8.60;99.90;;;;;;4994124;28;20038;-77
2023/03/14 03:44:36;;;;;;;9.40;2.35;;;8.60;99.90;;;;;;4994654;28;20062;-77
2023/03/14 03:47:02;;;;;;;8.43;1.95;;;8.60;99.90;;;;;;4994377;28;20045;-77
2023/03/14 03:49:32;;;;;;;7.57;2.20;;;8.60;99.90;;;;;;4994494;28;20050;-77
2023/03/14 03:51:59;;;;;;;10.48;2.42;;;8.60;99.90;;;;;;4993790;28;20541;-77
2023/03/14 03:54:25;;;;;;;8.02;2.05;;;8.60;99.90;;;;;;4994011;28;20121;-77
2023/03/14 03:56:51;;;;;;;7.38;2.20;;;8.60;99.90;;;;;;4992008;28;20050;-77
2023/03/14 03:59:17;;;;;;;10.90;3.20;;;8.60;99.90;;;;;;4993597;28;20068;-77
2023/03/14 04:01:42;;;;;;;6.32;1.92;;;8.60;99.90;;;;;;4993896;28;20046;-77
2023/03/14 04:04:08;;;;;;;8.48;1.63;;;8.50;99.90;;;;;;4994219;28;20506;-77
2023/03/14 04:06:34;;;;;;;8.25;2.65;;;8.50;99.90;;;;;;4993996;28;20047;-77
2023/03/14 04:09:00;;;;;;;12.95;2.95;;;8.50;99.90;;;;;;4993357;28;20052;-77
2023/03/14 04:11:26;;;;;;;10.95;2.70;;;8.50;99.90;;;;;;4993735;28;20120;-77
2023/03/14 04:13:51;;;;;;;8.82;1.67;;;8.60;99.90;;;;;;4992605;28;20666;-77
2023/03/14 04:16:20;;;;;;;10.95;2.70;;;8.60;99.90;;;;;;4993157;28;20050;-77
2023/03/14 04:18:46;;;;;;;12.60;2.67;;;8.60;99.90;;;;;;4993328;28;20126;-77
2023/03/14 04:21:12;;;;;;;;;;;8.50;99.90;;;;;;4993944;28;20412;-78
2023/03/14 04:23:38;;;;;;;5.07;2.53;;;8.50;99.90;;;;;;4993443;28;19922;-78
2023/03/14 04:26:04;;;;;;;6.93;2.17;;;8.50;99.90;;;;;;4993110;28;20108;-78
2023/03/14 04:28:30;;;;;;;;;;;8.50;99.90;;;;;;4994245;28;20042;-78
2023/03/14 04:30:55;;;;;;;5.38;2.33;;;8.50;99.90;;;;;;4993277;28;19933;-78
2023/03/14 04:33:21;;;;;;;6.10;2.78;;;8.50;99.90;;;;;;4993634;28;20058;-78
2023/03/14 04:35:47;;;;;;;8.05;2.75;;;8.40;99.90;;;;;;4993127;28;20553;-78
2023/03/14 04:38:13;;;;;;;6.90;2.70;;;8.40;99.90;;;;;;4992891;28;20086;-78
2023/03/14 04:40:42;;;;;;;10.70;2.55;;;8.50;99.90;;;;;;4991695;28;20046;-78
2023/03/14 04:43:09;;;;;;;7.43;2.95;;;8.50;99.90;;;;;;4993262;28;20042;-78
2023/03/14 04:45:35;;;;;;;17.25;3.88;;;8.50;99.90;;;;;;4993022;28;20496;-78
2023/03/14 04:48:01;;;;;;;11.55;3.00;;;8.50;99.90;;;;;;4992950;28;20053;-78
2023/03/14 04:50:27;;;;;;;10.25;3.53;;;8.50;99.90;;;;;;4993033;28;20137;-77
2023/03/14 04:52:53;;;;;;;11.52;3.95;;;8.50;99.90;;;;;;4992128;28;20065;-78
2023/03/14 04:55:18;;;;;;;10.73;3.40;;;8.50;99.90;;;;;;4992571;28;20042;-77
2023/03/14 04:57:44;;;;;;;15.52;2.95;;;8.50;99.90;;;;;;4992500;28;20050;-77
2023/03/14 05:00:11;;;;;;;9.23;3.45;;;7.90;99.90;;;;;;4992612;28;20093;-78
2023/03/14 05:02:37;;;;;;;11.70;3.35;;;8.50;99.90;;;;;;4992862;28;20061;-78
2023/03/14 05:05:03;;;;;;;;;;;8.40;99.90;;;;;;4993108;28;20042;-78
2023/03/14 05:07:29;;;;;;;18.00;3.17;;;8.50;99.90;;;;;;4992540;28;19922;-78
2023/03/14 05:09:54;;;;;;;9.40;2.88;;;8.50;99.90;;;;;;4992518;28;20053;-78
2023/03/14 05:12:20;;;;;;;7.68;2.55;;;8.50;99.90;;;;;;4991741;28;20054;-78
2023/03/14 05:14:46;;;;;;;6.10;2.38;;;8.50;99.90;;;;;;4992983;28;20082;-78
2023/03/14 05:17:14;;;;;;;12.93;2.40;;;8.50;99.90;;;;;;4992657;28;20145;-78
2023/03/14 05:19:40;;;;;;;7.75;2.28;;;8.50;99.90;;;;;;4992652;28;20510;-78
2023/03/14 05:22:06;;;;;;;8.73;1.92;;;8.50;99.90;;;;;;4992455;28;20050;-78
2023/03/14 05:24:32;;;;;;;15.18;3.40;;;8.50;99.90;;;;;;4992175;28;20128;-78
2023/03/14 05:26:58;;;;;;;11.25;3.25;;;8.50;99.90;;;;;;4991936;28;20125;-78
2023/03/14 05:29:23;;;;;;;7.70;2.20;;;8.40;99.90;;;;;;4993024;28;20050;-78
2023/03/14 05:31:49;;;;;;;15.52;3.17;;;8.40;99.90;;;;;;4992445;28;20133;-77
2023/03/14 05:34:15;;;;;;;10.35;3.25;;;8.40;99.90;;;;;;4992455;28;20093;-77
2023/03/14 05:36:41;;;;;;;12.68;2.28;;;8.40;99.90;;;;;;4992574;28;20479;-78
2023/03/14 05:39:06;;;;;;;6.63;2.17;;;8.40;99.90;;;;;;4974384;28;20047;-77
2023/03/14 05:41:32;;;;;;;10.25;3.03;;;8.40;99.90;;;;;;4991969;28;20050;-78
2023/03/14 05:43:58;;;;;;;4.25;1.88;;;8.40;99.90;;;;;;4974942;28;20570;-77
2023/03/14 05:46:23;;;;;;;11.43;2.60;;;8.40;99.90;;;;;;4991451;28;20547;-77
2023/03/14 05:48:49;;;;;;;11.13;2.40;;;8.50;99.90;;;;;;4992397;28;20252;-78
2023/03/14 05:51:15;;;;;;;7.28;2.38;;;8.50;99.90;;;;;;4991986;28;20053;-77
2023/03/14 05:53:40;;;;;;;7.15;2.00;;;8.50;99.90;;;;;;4992035;28;20053;-77
2023/03/14 05:56:07;;;;;;;12.38;2.65;;;8.40;99.90;;;;;;4991487;28;20093;-77
2023/03/14 05:58:32;;;;;;;9.10;2.90;;;8.50;99.90;;;;;;4992222;28;20141;-78
2023/03/14 06:01:02;;;;;;;10.93;2.97;;;8.50;99.90;;;;;;4990665;28;20452;-77
2023/03/14 06:03:28;;;;;;;9.93;2.50;;;8.50;99.90;;;;;;4992195;28;20497;-77
2023/03/14 06:05:53;;;;;;;11.10;3.72;;;8.60;99.90;;;;;;4991065;28;20082;-78
2023/03/14 06:08:19;;;;;;;6.43;2.10;;;8.50;99.90;;;;;;4991538;28;20361;-77
2023/03/14 06:10:45;;;;;;;5.80;2.13;;;8.60;99.90;;;;;;4991733;28;20129;-78
2023/03/14 06:13:10;;;;;;;15.52;3.30;;;8.60;99.90;;;;;;4991834;28;20049;-78
2023/03/14 06:15:36;;;;;;;6.40;2.08;;;8.60;99.90;;;;;;4991803;28;20055;-79
2023/03/14 06:18:02;;;;;;;4.43;1.90;;;8.60;99.90;;;;;;4991566;28;20045;-78
2023/03/14 06:20:28;;;;;;;13.10;3.47;;;8.60;99.90;;;;;;4992144;28;20065;-78
2023/03/14 06:22:54;;;;;;;7.07;2.30;;;8.60;99.90;;;;;;4991487;28;20038;-78
2023/03/14 06:25:20;;;;;;;8.88;1.90;;;8.60;99.90;;;;;;4995368;28;20042;-78
2023/03/14 06:27:45;;;;;;;10.07;2.30;;;8.60;99.90;;;;;;4995915;28;20550;-78
2023/03/14 06:30:11;;;;;;;10.35;2.35;;;8.60;99.90;;;;;;4995455;28;20079;-78
2023/03/14 06:32:37;;;;;;;8.40;2.75;;;8.60;99.90;;;;;;4995759;28;20042;-78
2023/03/14 06:35:03;;;;;;;15.15;3.53;;;8.60;99.90;;;;;;4994622;28;20053;-78
2023/03/14 06:37:29;;;;;;;11.25;3.78;;;8.60;99.90;;;;;;4994983;28;20065;-78
2023/03/14 06:39:56;;;;;;;8.75;3.00;;;8.60;99.90;;;;;;4995625;28;20050;-78
2023/03/14 06:42:22;;;;;;;12.38;2.92;;;8.60;99.90;;;;;;4993706;28;20082;-78
2023/03/14 06:44:47;;;;;;;8.35;2.58;;;8.60;99.90;;;;;;4994422;28;20507;-79
2023/03/14 06:47:13;;;;;;;5.88;2.40;;;8.60;99.90;;;;;;4995154;28;20050;-79
2023/03/14 06:49:39;;;;;;;15.55;3.15;;;8.60;99.90;;;;;;4995553;28;20053;-80
2023/03/14 06:52:05;;;;;;;17.95;3.80;;;8.60;99.90;;;;;;4995038;28;20077;-79
2023/03/14 06:54:31;;;;;;;9.77;2.78;;;8.60;99.90;;;;;;4994984;28;20492;-79
2023/03/14 06:56:56;;;;;;;7.97;2.70;;;8.60;99.90;;;;;;4995017;28;20054;-79
2023/03/14 06:59:22;;;;;;;7.10;2.65;;;8.60;99.90;;;;;;4995073;28;20054;-78
2023/03/14 07:01:48;;;;;;;11.55;2.75;;;8.60;99.90;;;;;;4995400;28;20054;-78
2023/03/14 07:04:13;;;;;;;7.93;2.33;;;8.60;99.90;;;;;;4994897;28;20046;-78
2023/03/14 07:06:43;;;;;;;12.10;3.25;;;8.60;99.90;;;;;;4995044;28;20054;-77
2023/03/14 07:09:10;;;;;;;14.32;3.08;;;8.60;99.90;;;;;;4994267;28;20120;-77
2023/03/14 07:11:36;;;;;;;7.15;2.53;;;8.60;99.90;;;;;;4993704;28;20054;-78
2023/03/14 07:14:02;;;;;;;8.38;2.50;;;8.70;99.90;;;;;;4994785;28;20109;-78
2023/03/14 07:16:31;;;;;;;8.40;3.15;;;8.70;99.90;;;;;;4993878;28;20048;-78
2023/03/14 07:18:57;;;;;;;14.07;3.13;;;8.70;99.90;;;;;;4994758;28;20549;-79
2023/03/14 07:21:22;;;;;;;;;;;8.70;99.90;;;;;;4994961;28;20483;-79
2023/03/14 07:23:48;;;;;;;13.77;3.42;;;8.70;99.90;;;;;;4994657;28;19922;-76
2023/03/14 07:26:14;;;;;;;7.00;2.28;;;8.70;99.90;;;;;;4993029;28;20043;-78
2023/03/14 07:28:39;;;;;;;8.45;2.95;;;8.70;99.90;;;;;;4994642;28;20050;-77
2023/03/14 07:31:05;;;;;;;4.45;2.15;;;8.70;99.90;;;;;;4994494;28;20476;-76
2023/03/14 07:33:31;;;;;;;5.90;2.08;;;8.70;99.90;;;;;;4994449;28;20049;-78
2023/03/14 07:35:57;;;;;;;6.78;2.13;;;8.70;99.90;;;;;;4994276;28;20082;-77
2023/03/14 07:38:23;;;;;;;17.50;3.42;;;8.70;99.90;;;;;;4993781;28;20498;-77
2023/03/14 07:40:49;;;;;;;6.82;1.73;;;8.70;99.90;;;;;;4994300;28;20130;-77
2023/03/14 07:43:14;;;;;;;10.88;2.03;;;8.60;99.90;;;;;;4994351;28;20053;-77
2023/03/14 07:45:40;;;;;;;5.18;1.40;;;8.40;99.90;;;;;;4994731;28;20054;-77
2023/03/14 07:48:06;;;;;;;1.38;0.85;;;8.30;99.90;;;;;;4992980;28;20545;-76
2023/03/14 07:50:32;;;;;;;2.90;1.20;;;8.10;99.90;;;;;;4993565;28;20411;-77
2023/03/14 07:52:57;;;;;;;3.45;0.90;;;8.00;99.90;;;;;;4993939;28;20057;-77
2023/03/14 07:55:23;;;;;;;4.45;1.20;;;7.80;99.90;;;;;;4993808;28;20465;-76
2023/03/14 07:57:49;;;;;;;2.90;1.25;;;7.80;99.90;;;;;;4994002;28;20151;-77
2023/03/14 08:00:15;;;;;;;3.17;0.73;;;7.70;99.90;;;;;;4994108;28;20066;-77
2023/03/14 08:02:40;;;;;;;;;;;7.50;99.90;;;;;;4994679;28;20192;-77
2023/03/14 08:05:07;;;;;;;2.75;0.88;;;7.20;99.90;;;;;;4993053;28;20016;-76
2023/03/14 08:07:32;;;;;;;8.82;1.80;;;6.80;99.90;;;;;;4992333;28;20592;-77
2023/03/14 08:09:58;;;;;;;3.65;1.13;;;6.50;99.90;;;;;;4993978;28;20048;-77
2023/03/14 08:12:24;;;;;;;1.85;0.93;;;6.30;99.90;;;;;;4991983;28;20046;-77
2023/03/14 08:14:49;;;;;;;2.03;0.55;;;6.20;99.90;;;;;;4993787;28;20101;-77
2023/03/14 08:17:15;;;;;;;4.80;0.80;;;6.10;99.90;;;;;;4993480;28;20045;-77
2023/03/14 08:19:42;;;;;;;3.08;0.88;;;6.00;99.90;;;;;;4992876;28;20050;-77
2023/03/14 08:22:07;;;;;;;3.50;0.80;;;5.90;99.90;;;;;;4993533;28;20129;-78
2023/03/14 08:24:33;;;;;;;0.60;0.60;;;5.90;99.90;;;;;;4993110;28;20126;-76
2023/03/14 08:26:59;;;;;;;4.38;0.68;;;5.80;99.90;;;;;;4993484;28;20468;-77
2023/03/14 08:29:28;;;;;;;3.92;0.70;;;5.70;99.90;;;;;;4993540;28;20423;-76
2023/03/14 08:31:54;;;;;;;0.68;0.40;;;5.70;99.90;;;;;;4993268;28;20129;-77
2023/03/14 08:34:21;;;;;;;1.52;0.47;;;5.50;99.90;;;;;;4992882;28;20073;-77
2023/03/14 08:36:47;;;;;;;0.55;0.40;;;5.50;99.90;;;;;;4993611;28;20136;-78
2023/03/14 08:39:12;;;;;;;2.60;0.75;;;5.40;99.90;;;;;;4992715;28;20046;-76
2023/03/14 08:41:39;;;;;;;2.17;0.85;;;5.20;99.90;;;;;;4993209;28;20073;-77
2023/03/14 08:44:11;;;;;;;1.13;0.60;;;5.10;99.90;;;;;;4993104;28;20054;-79
2023/03/14 08:46:37;;;;;;;0.82;0.45;;;5.10;99.90;;;;;;4992692;28;20057;-79
2023/03/14 08:49:03;;;;;;;3.20;0.95;;;4.90;99.90;;;;;;4993101;28;20046;-79
2023/03/14 08:51:28;;;;;;;1.15;0.50;;;4.90;99.90;;;;;;4993018;28;20081;-79
2023/03/14 08:53:54;;;;;;;0.40;0.40;;;4.90;99.90;;;;;;4991212;28;20085;-79
2023/03/14 08:56:20;;;;;;;0.75;0.40;;;5.00;99.90;;;;;;4975277;28;20055;-79
2023/03/14 08:58:45;;;;;;;2.20;0.55;;;5.20;99.90;;;;;;4993223;28;20061;-77
2023/03/14 09:01:11;;;;;;;0.70;0.38;;;4.90;99.90;;;;;;4990743;28;20053;-76
2023/03/14 09:03:38;;;;;;;0.95;0.60;;;4.90;99.90;;;;;;4992002;28;20050;-76
2023/03/14 09:06:05;;;;;;;1.17;0.43;;;4.90;99.90;;;;;;4992312;28;20042;-76
2023/03/14 09:08:31;;;;;;;1.15;0.60;;;4.90;99.90;;;;;;4989996;28;20045;-76
2023/03/14 09:10:57;;;;;;;1.75;0.43;;;4.90;99.90;;;;;;4992288;28;20046;-76
2023/03/14 09:13:23;;;;;;;0.55;0.43;;;5.00;99.90;;;;;;4990688;28;20471;-76
2023/03/14 09:15:53;;;;;;;0.30;0.30;;;5.00;99.90;;;;;;4992168;28;20052;-76
2023/03/14 09:18:18;;;;;;;0.50;0.40;;;5.00;99.90;;;;;;4991884;28;20042;-76
2023/03/14 09:20:44;;;;;;;1.35;0.75;;;5.10;99.90;;;;;;4992153;28;20097;-76
2023/03/14 09:23:10;;;;;;;3.25;0.77;;;5.10;99.90;;;;;;4990676;28;20046;-76
2023/03/14 09:25:36;;;;;;;1.00;0.47;;;5.20;99.90;;;;;;4990221;28;20136;-75
2023/03/14 09:28:02;;;;;;;3.47;0.80;;;5.40;99.90;;;;;;4992059;28;20500;-73
2023/03/14 09:30:27;;;;;;;2.35;0.80;;;5.20;99.90;;;;;;4991745;28;20049;-74
2023/03/14 09:32:53;;;;;;;1.42;0.60;;;5.30;99.90;;;;;;4991918;28;20050;-76
2023/03/14 09:35:19;;;;;;;2.80;1.15;;;5.30;99.90;;;;;;4991554;28;20472;-78
2023/03/14 09:37:45;;;;;;;5.65;1.20;;;5.30;99.90;;;;;;4991548;28;20142;-76
2023/03/14 09:40:13;;;;;;;2.03;0.73;;;5.40;99.90;;;;;;4992105;28;20129;-80
2023/03/14 09:42:40;;;;;;;6.75;0.77;;;5.40;99.90;;;;;;4991363;28;20508;-73
2023/03/14 09:45:13;;;;;;;3.35;0.85;;;5.50;99.90;;;;;;4992345;28;20149;-76
2023/03/14 09:47:40;;;;;;;7.07;1.85;;;5.60;99.90;;;;;;4991943;28;20050;-80
2023/03/14 09:50:13;;;;;;;6.18;1.10;;;5.70;99.90;;;;;;4992322;28;20054;-78
2023/03/14 09:52:41;;;;;;;1.30;0.68;;;5.80;99.90;;;;;;4991719;28;20181;-79
2023/03/14 09:55:13;;;;;;;4.53;1.15;;;5.90;99.90;;;;;;4991071;28;20099;-78
2023/03/14 09:57:40;;;;;;;5.15;1.10;;;6.00;99.90;;;;;;4991141;28;20404;-85
2023/03/14 10:00:18;;;;;;;10.57;1.20;;;6.00;99.90;;;;;;4992135;28;20073;-77
2023/03/14 10:02:55;;;;;;;10.48;1.60;;;6.10;99.90;;;;;;4992253;28;20046;-75
2023/03/14 10:05:23;;;;;;;3.28;1.70;;;6.10;99.90;;;;;;4991929;28;20057;-78
2023/03/14 10:07:50;;;;;;;5.88;1.27;;;6.20;99.90;;;;;;4991820;28;20049;-79
2023/03/14 10:10:20;;;;;;;6.82;1.30;;;6.30;99.90;;;;;;4992011;28;20050;-78
2023/03/14 10:12:54;;;;;;;9.15;1.52;;;6.40;99.90;;;;;;4992117;28;20514;-79
2023/03/14 10:15:26;;;;;;;7.93;1.23;;;6.50;99.90;;;;;;4991852;28;20130;-76
2023/03/14 10:17:52;;;;;;;14.10;1.80;;;6.60;99.90;;;;;;4991874;28;20047;-76
2023/03/14 10:20:37;;;;;;;13.73;1.55;;;6.70;99.90;;;;;;4991979;28;20046;-76
2023/03/14 10:23:12;;;;;;;8.27;1.60;;;6.70;99.90;;;;;;4992015;28;20129;-76
2023/03/14 10:25:40;;;;;;;12.13;2.38;;;6.70;99.90;;;;;;4990550;28;20116;-78
2023/03/14 10:28:27;;;;;;;10.50;2.17;;;6.70;99.90;;;;;;4990135;28;20162;-76
2023/03/14 10:30:54;;;;;;;9.45;1.50;;;6.70;99.90;;;;;;4992101;28;20108;-77
2023/03/14 10:33:27;;;;;;;9.90;1.45;;;6.80;99.90;;;;;;4991512;28;20118;-76
2023/03/14 10:36:05;;;;;;;8.88;1.80;;;6.70;99.90;;;;;;4992140;28;20050;-76
2023/03/14 10:38:36;;;;;;;10.30;1.65;;;6.60;99.90;;;;;;4990963;28;20038;-76
2023/03/14 10:41:13;;;;;;;14.00;2.47;;;6.40;99.90;;;;;;4990265;28;20058;-80
2023/03/14 10:43:40;;;;;;;7.18;1.83;;;6.40;99.90;;;;;;4991654;28;20125;-74
2023/03/14 10:46:15;;;;;;;10.98;1.85;;;6.40;99.90;;;;;;4991602;28;20188;-73
2023/03/14 10:48:41;;;;;;;8.55;1.73;;;6.40;99.90;;;;;;4990651;28;20651;-76
2023/03/14 10:51:16;;;;;;;12.52;1.90;;;6.50;99.90;;;;;;4991280;28;20054;-74
2023/03/14 10:53:49;;;;;;;11.82;1.73;;;6.60;99.90;;;;;;4991039;28;20042;-75
2023/03/14 10:56:20;;;;;;;18.02;2.05;;;6.60;99.90;;;;;;4991400;28;20061;-76
2023/03/14 10:59:11;;;;;;;16.77;2.33;;;6.70;99.90;;;;;;4991137;28;20062;-76
2023/03/14 11:01:58;;;;;;;7.65;1.38;;;6.60;99.90;;;;;;4990453;28;20486;-76
2023/03/14 11:04:39;;;;;;;8.68;2.20;;;6.60;99.90;;;;;;4990319;28;20050;-76
2023/03/14 11:07:14;;;;;;;13.25;1.80;;;6.50;99.90;;;;;;4990863;28;20047;-77
2023/03/14 11:10:04;;;;;;;13.13;2.97;;;6.40;99.90;;;;;;4992234;28;20046;-76
2023/03/14 11:12:53;;;;;;;9.45;2.35;;;6.30;99.90;;;;;;4994518;28;20061;-75
2023/03/14 11:15:26;;;;;;;14.23;2.85;;;6.20;99.90;;;;;;4995138;28;20052;-76
2023/03/14 11:18:16;;;;;;;10.43;2.53;;;6.30;99.90;;;;;;4995161;28;20050;-75
2023/03/14 11:20:49;;;;;;;19.92;2.88;;;6.40;99.90;;;;;;4994588;28;20058;-75
2023/03/14 11:23:20;;;;;;;11.55;1.63;;;6.60;99.90;;;;;;4994325;28;20128;-75
2023/03/14 11:26:07;;;;;;;12.30;3.13;;;6.80;99.90;;;;;;4994144;28;20424;-76
2023/03/14 11:28:45;;;;;;;12.23;2.22;;;6.80;99.90;;;;;;4994602;28;20388;-76
2023/03/14 11:31:23;;;;;;;6.82;1.90;;;6.80;99.90;;;;;;4994969;28;20129;-76
2023/03/14 11:34:07;;;;;;;9.18;1.50;;;6.90;99.90;;;;;;4994649;28;20119;-77
2023/03/14 11:36:44;;;;;;;5.75;1.35;;;7.00;99.90;;;;;;4992798;28;20137;-76
2023/03/14 11:39:15;;;;;;;12.48;1.83;;;7.20;99.90;;;;;;4994162;28;20043;-76
2023/03/14 11:41:53;;;;;;;5.00;1.25;;;7.30;99.90;;;;;;4993937;28;20374;-76
2023/03/14 11:44:27;;;;;;;9.68;1.83;;;7.40;99.90;;;;;;4994320;28;20116;-76
2023/03/14 11:47:15;;;;;;;6.72;1.23;;;7.50;99.90;;;;;;4994540;28;20051;-77
2023/03/14 11:50:07;;;;;;;12.90;1.30;;;7.40;99.90;;;;;;4994086;28;20184;-76
2023/03/14 11:52:40;;;;;;;10.88;1.75;;;7.40;99.90;;;;;;4993040;28;20108;-76
2023/03/14 11:55:27;;;;;;;12.10;1.95;;;7.30;99.90;;;;;;4994080;28;20102;-77
2023/03/14 11:57:58;;;;;;;10.88;1.85;;;7.20;99.90;;;;;;4993686;28;20061;-77
2023/03/14 12:00:25;;;;;;;10.10;1.88;;;7.20;99.90;;;;;;4993655;28;20051;-76
2023/03/14 12:03:10;;;;;;;13.45;1.90;;;7.40;99.90;;;;;;4993572;28;20046;-76
2023/03/14 12:06:02;;;;;;;6.10;1.25;;;7.70;99.90;;;;;;4993183;28;20512;-76
2023/03/14 12:08:58;;;;;;;5.93;1.63;;;7.90;99.90;;;;;;4993142;28;20050;-76
2023/03/14 12:11:52;;;;;;;7.50;1.45;;;8.10;99.90;;;;;;4993779;28;20057;-77
2023/03/14 12:14:31;;;;;;;7.88;1.60;;;8.30;99.90;;;;;;4993013;28;20050;-79
2023/03/14 12:17:03;;;;;;;9.52;1.45;;;8.50;99.90;;;;;;4993854;28;20058;-77
2023/03/14 12:19:40;;;;;;;8.13;1.67;;;8.60;99.90;;;;;;4993560;28;20136;-77
2023/03/14 12:22:10;;;;;;;8.32;1.38;;;8.40;99.90;;;;;;4992610;28;20396;-77
2023/03/14 12:24:38;;;;;;;7.10;1.00;;;8.30;99.90;;;;;;4992039;28;20240;-77
2023/03/14 12:27:06;;;;;;;6.55;1.90;;;8.20;99.90;;;;;;4993180;28;20399;-77
2023/03/14 12:29:32;;;;;;;7.57;1.75;;;8.50;99.90;;;;;;4992499;28;20054;-77
2023/03/14 12:32:22;;;;;;;9.65;1.63;;;8.80;99.90;;;;;;4992566;28;20128;-77
2023/03/14 12:34:48;;;;;;;3.65;0.93;;;9.30;99.90;;;;;;4993395;28;20511;-77
2023/03/14 12:37:36;;;;;;;10.23;1.63;;;9.70;99.90;;;;;;4993032;28;20134;-77
2023/03/14 12:40:14;;;;;;;6.43;1.27;;;9.90;99.90;;;;;;4993445;28;20046;-77
2023/03/14 12:43:00;;;;;;;5.45;1.63;;;10.00;99.90;;;;;;4992109;28;20630;-77
2023/03/14 12:45:36;;;;;;;7.20;1.27;;;10.00;99.90;;;;;;4993329;28;20047;-78
2023/03/14 12:48:21;;;;;;;4.72;1.15;;;9.80;99.90;;;;;;4992899;28;20038;-79
2023/03/14 12:50:54;;;;;;;7.38;1.17;;;9.50;99.90;;;;;;4991322;28;20080;-79
2023/03/14 12:53:27;;;;;;;7.93;1.40;;;9.30;99.90;;;;;;4992480;28;20497;-78
2023/03/14 12:56:37;;;;;;;4.07;1.40;;;9.60;99.90;;;;;;4992158;28;20046;-79
2023/03/14 12:59:13;;;;;;;3.35;0.95;;;10.10;99.90;;;;;;4951128;29;20081;-80
2023/03/14 13:01:56;;;;;;;7.50;1.20;;;10.70;99.90;;;;;;4951422;29;20051;-79
2023/03/14 13:05:04;;;;;;;6.03;1.00;;;11.10;99.90;;;;;;4978661;28;20286;-80
2023/03/14 13:07:33;;;;;;;3.00;0.80;;;11.30;99.90;;;;;;4986191;28;20404;-78